createdAt,value
2022-12-18T00:01:17.147Z,27.95
2022-12-18T00:03:44.420Z,27.48
2022-12-18T00:06:12.656Z,26.30
2022-12-18T00:08:39.525Z,28.40
2022-12-18T00:11:12.131Z,30.15
2022-12-18T00:13:39.214Z,28.05
2022-12-18T00:16:08.953Z,29.70
2022-12-18T00:18:36.210Z,28.55
2022-12-18T00:21:05.993Z,28.25
2022-12-18T00:23:34.351Z,30.00
2022-12-18T00:26:06.630Z,30.38
2022-12-18T00:28:34.006Z,29.02
2022-12-18T00:31:04.435Z,27.70
2022-12-18T00:33:31.661Z,27.40
2022-12-18T00:36:16.817Z,26.60
2022-12-18T00:38:44.608Z,26.70
2022-12-18T00:41:12.914Z,26.88
2022-12-18T00:43:41.015Z,26.98
2022-12-18T00:46:08.096Z,26.25
2022-12-18T00:48:34.835Z,25.73
2022-12-18T00:51:01.612Z,25.98
2022-12-18T00:53:31.320Z,24.75
2022-12-18T00:55:59.182Z,25.80
2022-12-18T00:58:25.873Z,26.05
2022-12-18T01:00:52.610Z,27.65
2022-12-18T01:03:19.357Z,28.13
2022-12-18T01:05:46.140Z,23.77
2022-12-18T01:08:12.859Z,25.45
2022-12-18T01:10:42.449Z,27.55
2022-12-18T01:13:09.440Z,28.58
2022-12-18T01:15:36.739Z,28.38
2022-12-18T01:18:03.597Z,26.50
2022-12-18T01:20:30.327Z,26.73
2022-12-18T01:22:56.996Z,28.10
2022-12-18T01:25:23.702Z,28.58
2022-12-18T01:27:50.437Z,26.88
2022-12-18T01:30:17.206Z,28.30
2022-12-18T01:32:43.926Z,30.10
2022-12-18T01:35:10.610Z,27.15
2022-12-18T01:37:37.309Z,25.33
2022-12-18T01:40:05.485Z,25.92
2022-12-18T01:42:32.176Z,25.52
2022-12-18T01:45:17.130Z,26.42
2022-12-18T01:48:10.234Z,25.92
2022-12-18T01:50:43.057Z,25.55
2022-12-18T01:53:19.981Z,25.40
2022-12-18T01:55:50.853Z,25.17
2022-12-18T01:58:19.190Z,24.73
2022-12-18T02:00:45.972Z,23.73
2022-12-18T02:03:13.204Z,25.05
2022-12-18T02:05:48.110Z,23.83
2022-12-18T02:08:22.744Z,25.83
2022-12-18T02:11:04.515Z,23.92
2022-12-18T02:13:57.959Z,24.30
2022-12-18T02:16:36.830Z,25.30
2022-12-18T02:19:21.190Z,24.55
2022-12-18T02:22:10.095Z,25.00
2022-12-18T02:24:49.151Z,22.50
2022-12-18T02:27:16.406Z,23.52
2022-12-18T02:30:03.301Z,23.83
2022-12-18T02:32:35.290Z,23.88
2022-12-18T02:35:05.602Z,24.33
2022-12-18T02:37:34.545Z,24.13
2022-12-18T02:40:02.115Z,21.85
2022-12-18T02:42:29.435Z,23.27
2022-12-18T02:44:56.131Z,23.90
2022-12-18T02:47:25.517Z,22.85
2022-12-18T02:50:27.589Z,23.13
2022-12-18T02:53:19.892Z,24.83
2022-12-18T02:56:22.996Z,23.95
2022-12-18T02:59:07.930Z,23.38
2022-12-18T03:01:34.696Z,23.50
2022-12-18T03:04:17.130Z,21.70
2022-12-18T03:06:49.392Z,21.05
2022-12-18T03:09:26.050Z,22.92
2022-12-18T03:12:19.035Z,21.63
2022-12-18T03:14:50.873Z,22.83
2022-12-18T03:17:21.657Z,22.88
2022-12-18T03:19:50.370Z,23.17
2022-12-18T03:22:17.958Z,20.35
2022-12-18T03:24:47.193Z,22.58
2022-12-18T03:27:18.415Z,20.30
2022-12-18T03:30:03.808Z,22.60
2022-12-18T03:32:34.035Z,19.92
2022-12-18T03:35:05.382Z,19.95
2022-12-18T03:37:32.524Z,20.40
2022-12-18T03:39:59.421Z,21.52
2022-12-18T03:42:40.011Z,21.77
2022-12-18T03:45:15.697Z,21.92
2022-12-18T03:50:26.996Z,21.88
2022-12-18T03:53:44.596Z,21.83
2022-12-18T03:58:42.181Z,25.17
2022-12-18T04:01:10.927Z,25.00
2022-12-18T04:03:40.040Z,23.88
2022-12-18T04:06:08.249Z,23.75
2022-12-18T04:08:35.894Z,22.52
2022-12-18T04:11:03.113Z,25.02
2022-12-18T04:13:34.191Z,22.60
2022-12-18T04:16:01.411Z,23.88
2022-12-18T04:18:28.261Z,23.05
2022-12-18T04:20:55.325Z,23.55
2022-12-18T04:23:22.569Z,23.67
2022-12-18T04:25:49.927Z,22.58
2022-12-18T04:28:16.662Z,22.88
2022-12-18T04:30:43.457Z,25.40
2022-12-18T04:33:18.803Z,25.67
2022-12-18T04:35:46.595Z,24.23
2022-12-18T04:38:13.292Z,24.85
2022-12-18T04:40:39.987Z,23.23
2022-12-18T04:43:08.727Z,25.05
2022-12-18T04:45:35.754Z,26.25
2022-12-18T04:48:05.585Z,26.25
2022-12-18T04:50:32.748Z,26.92
2022-12-18T04:52:59.475Z,25.58
2022-12-18T04:55:29.129Z,24.67
2022-12-18T04:57:55.824Z,26.95
2022-12-18T05:00:23.156Z,24.63
2022-12-18T05:02:49.982Z,26.15
2022-12-18T05:05:16.887Z,27.13
2022-12-18T05:07:43.736Z,23.52
2022-12-18T05:10:10.982Z,26.60
2022-12-18T05:12:58.995Z,26.42
2022-12-18T05:15:31.428Z,25.83
2022-12-18T05:17:59.426Z,25.48
2022-12-18T05:20:27.233Z,24.02
2022-12-18T05:22:55.134Z,24.42
2022-12-18T05:25:22.823Z,26.10
2022-12-18T05:27:49.655Z,25.50
2022-12-18T05:30:16.884Z,26.55
2022-12-18T05:32:44.250Z,24.00
2022-12-18T05:35:14.519Z,25.38
2022-12-18T05:37:43.289Z,25.08
2022-12-18T05:40:10.840Z,25.83
2022-12-18T05:42:37.747Z,25.63
2022-12-18T05:45:06.077Z,23.40
2022-12-18T05:47:32.885Z,24.75
2022-12-18T05:49:59.585Z,25.00
2022-12-18T05:52:26.400Z,24.40
2022-12-18T05:54:53.107Z,23.98
2022-12-18T05:57:19.865Z,23.50
2022-12-18T05:59:46.543Z,23.00
2022-12-18T06:02:13.429Z,23.38
2022-12-18T06:04:40.324Z,23.55
2022-12-18T06:07:07.335Z,24.85
2022-12-18T06:09:34.110Z,25.00
2022-12-18T06:12:00.964Z,23.48
2022-12-18T06:14:27.729Z,24.48
2022-12-18T06:16:54.440Z,24.42
2022-12-18T06:19:21.215Z,24.52
2022-12-18T06:21:48.011Z,26.50
2022-12-18T06:24:14.762Z,26.13
2022-12-18T06:26:41.666Z,25.23
2022-12-18T06:29:08.530Z,26.25
2022-12-18T06:31:38.348Z,26.23
2022-12-18T06:34:05.736Z,25.98
2022-12-18T06:36:32.874Z,26.30
2022-12-18T06:38:59.840Z,23.90
2022-12-18T06:41:26.878Z,25.23
2022-12-18T06:43:56.941Z,23.70
2022-12-18T06:46:26.384Z,24.73
2022-12-18T06:48:53.671Z,25.63
2022-12-18T06:51:24.901Z,25.60
2022-12-18T06:53:51.808Z,26.35
2022-12-18T06:56:18.593Z,23.58
2022-12-18T06:58:45.325Z,25.30
2022-12-18T07:01:13.097Z,24.92
2022-12-18T07:03:42.091Z,25.45
2022-12-18T07:06:20.514Z,24.92
2022-12-18T07:08:47.710Z,25.60
2022-12-18T07:11:15.087Z,26.05
2022-12-18T07:13:42.667Z,24.73
2022-12-18T07:16:18.311Z,23.08
2022-12-18T07:18:48.076Z,23.63
2022-12-18T07:21:18.155Z,23.33
2022-12-18T07:23:47.255Z,24.23
2022-12-18T07:26:16.257Z,26.70
2022-12-18T07:28:43.810Z,24.98
2022-12-18T07:31:16.717Z,25.77
2022-12-18T07:33:44.361Z,24.38
2022-12-18T07:36:11.617Z,25.50
2022-12-18T07:38:38.788Z,27.73
2022-12-18T07:41:08.809Z,36.60
2022-12-18T07:43:38.522Z,34.47
2022-12-18T07:46:05.919Z,38.45
2022-12-18T07:48:32.788Z,28.98
2022-12-18T07:51:05.116Z,27.75
2022-12-18T07:53:35.368Z,26.08
2022-12-18T07:58:54.513Z,26.17
2022-12-18T08:01:21.515Z,28.55
2022-12-18T08:03:48.410Z,26.63
2022-12-18T08:06:16.599Z,26.83
2022-12-18T08:08:43.456Z,31.30
2022-12-18T08:11:13.130Z,31.17
2022-12-18T08:13:40.204Z,32.88
2022-12-18T08:16:08.474Z,29.38
2022-12-18T08:18:37.439Z,33.10
2022-12-18T08:21:11.795Z,29.55
2022-12-18T08:23:42.737Z,27.98
2022-12-18T08:26:11.393Z,29.40
2022-12-18T08:28:38.398Z,31.27
2022-12-18T08:31:05.589Z,30.92
2022-12-18T08:33:33.010Z,28.98
2022-12-18T08:36:00.429Z,31.45
2022-12-18T08:38:27.483Z,32.05
2022-12-18T08:41:01.471Z,30.92
2022-12-18T08:43:47.195Z,28.52
2022-12-18T08:46:17.010Z,32.60
2022-12-18T08:48:43.929Z,33.17
2022-12-18T08:51:10.680Z,27.67
2022-12-18T08:53:38.332Z,26.73
2022-12-18T08:56:06.049Z,28.92
2022-12-18T08:58:32.847Z,27.13
2022-12-18T09:01:04.159Z,28.80
2022-12-18T09:03:31.093Z,31.33
2022-12-18T09:05:58.024Z,31.83
2022-12-18T09:08:24.797Z,28.17
2022-12-18T09:10:52.197Z,29.13
2022-12-18T09:13:19.837Z,26.27
2022-12-18T09:15:52.510Z,26.38
2022-12-18T09:18:21.148Z,27.52
2022-12-18T09:20:48.335Z,26.73
2022-12-18T09:23:15.658Z,26.77
2022-12-18T09:25:42.506Z,26.88
2022-12-18T09:28:15.520Z,26.48
2022-12-18T09:30:46.049Z,26.55
2022-12-18T09:33:12.978Z,27.42
2022-12-18T09:35:41.554Z,27.58
2022-12-18T09:38:12.287Z,32.80
2022-12-18T09:40:52.654Z,34.47
2022-12-18T09:43:28.070Z,31.40
2022-12-18T09:46:00.033Z,32.83
2022-12-18T09:48:49.008Z,31.30
2022-12-18T09:51:30.281Z,28.17
2022-12-18T09:54:12.704Z,26.67
2022-12-18T09:56:43.551Z,24.90
2022-12-18T09:59:40.754Z,24.13
2022-12-18T10:02:18.264Z,24.50
2022-12-18T10:04:49.732Z,26.35
2022-12-18T10:07:25.184Z,25.38
2022-12-18T10:10:08.002Z,24.98
2022-12-18T10:12:50.328Z,23.92
2022-12-18T10:15:19.704Z,22.20
2022-12-18T10:18:20.202Z,24.73
2022-12-18T10:20:55.698Z,23.63
2022-12-18T10:23:47.863Z,23.48
2022-12-18T10:26:15.311Z,24.17
2022-12-18T10:28:44.612Z,21.77
2022-12-18T10:31:20.602Z,22.02
2022-12-18T10:33:47.548Z,23.52
2022-12-18T10:36:14.659Z,22.67
2022-12-18T10:38:42.193Z,20.75
2022-12-18T10:41:23.068Z,22.90
2022-12-18T10:44:09.884Z,20.85
2022-12-18T10:46:36.683Z,22.50
2022-12-18T10:49:03.759Z,23.13
2022-12-18T10:51:37.128Z,23.08
2022-12-18T10:54:28.742Z,25.98
2022-12-18T10:57:30.231Z,22.90
2022-12-18T10:59:58.911Z,19.65
2022-12-18T11:02:35.968Z,22.25
2022-12-18T11:05:04.483Z,22.35
2022-12-18T11:07:50.433Z,23.98
2022-12-18T11:10:19.702Z,21.92
2022-12-18T11:12:47.038Z,21.48
2022-12-18T11:15:21.305Z,19.63
2022-12-18T11:17:50.490Z,21.70
2022-12-18T11:20:34.648Z,22.33
2022-12-18T11:23:11.303Z,21.95
2022-12-18T11:25:38.095Z,22.75
2022-12-18T11:28:26.124Z,21.63
2022-12-18T11:31:16.863Z,22.10
2022-12-18T11:34:26.764Z,21.45
2022-12-18T11:36:45.401Z,22.17
2022-12-18T11:39:39.473Z,21.98
2022-12-18T11:42:17.072Z,21.25
2022-12-18T11:44:51.032Z,22.65
2022-12-18T11:47:38.220Z,22.92
2022-12-18T11:50:38.301Z,22.65
2022-12-18T11:53:06.496Z,22.13
2022-12-18T11:56:07.294Z,19.20
2022-12-18T11:59:15.627Z,20.25
2022-12-18T12:01:51.686Z,21.30
2022-12-18T12:04:40.470Z,21.52
2022-12-18T12:07:35.630Z,19.92
2022-12-18T12:10:23.882Z,20.70
2022-12-18T12:12:59.444Z,20.40
2022-12-18T12:15:48.114Z,23.08
2022-12-18T12:18:26.703Z,20.23
2022-12-18T12:21:05.511Z,21.83
2022-12-18T12:23:37.929Z,20.00
2022-12-18T12:26:12.375Z,19.42
2022-12-18T12:29:25.144Z,20.27
2022-12-18T12:32:15.034Z,20.60
2022-12-18T12:35:01.682Z,20.45
2022-12-18T12:37:36.461Z,22.45
2022-12-18T12:40:26.875Z,22.55
2022-12-18T12:43:15.116Z,22.58
2022-12-18T12:45:48.058Z,21.23
2022-12-18T12:48:41.130Z,22.67
2022-12-18T12:51:32.857Z,22.10
2022-12-18T12:54:02.226Z,21.73
2022-12-18T12:56:52.009Z,23.13
2022-12-18T13:00:04.477Z,24.80
2022-12-18T13:03:08.843Z,21.27
2022-12-18T13:05:51.773Z,23.67
2022-12-18T13:08:26.605Z,22.35
2022-12-18T13:11:16.404Z,82.77
2022-12-18T13:13:55.587Z,42.35
2022-12-18T13:16:28.434Z,27.98
2022-12-18T13:18:59.810Z,25.98
2022-12-18T13:21:33.313Z,23.92
2022-12-18T13:24:25.550Z,35.28
2022-12-18T13:26:52.352Z,25.40
2022-12-18T13:29:42.983Z,24.63
2022-12-18T13:32:23.074Z,22.25
2022-12-18T13:35:23.020Z,26.50
2022-12-18T13:37:55.843Z,24.58
2022-12-18T13:40:40.496Z,21.63
2022-12-18T13:43:22.482Z,22.40
2022-12-18T13:46:00.045Z,22.20
2022-12-18T13:48:30.112Z,22.95
2022-12-18T13:51:04.421Z,24.50
2022-12-18T13:53:54.542Z,27.20
2022-12-18T13:56:27.622Z,27.23
2022-12-18T13:59:17.207Z,25.45
2022-12-18T14:01:49.456Z,23.58
2022-12-18T14:04:34.292Z,23.95
2022-12-18T14:07:08.314Z,24.48
2022-12-18T14:09:43.147Z,24.13
2022-12-18T14:12:38.165Z,24.45
2022-12-18T14:15:06.997Z,23.85
2022-12-18T14:17:34.578Z,22.13
2022-12-18T14:20:02.171Z,24.67
2022-12-18T14:22:30.427Z,23.85
2022-12-18T14:25:18.813Z,25.55
2022-12-18T14:27:54.822Z,24.63
2022-12-18T14:30:24.581Z,23.85
2022-12-18T14:33:03.266Z,23.05
2022-12-18T14:35:30.026Z,22.00
2022-12-18T14:38:16.727Z,23.00
2022-12-18T14:40:44.609Z,22.02
2022-12-18T14:43:12.270Z,23.20
2022-12-18T14:45:45.123Z,22.98
2022-12-18T14:48:23.570Z,24.08
2022-12-18T14:51:03.321Z,24.88
2022-12-18T14:53:44.398Z,23.65
2022-12-18T14:56:25.609Z,22.73
2022-12-18T14:58:59.900Z,23.67
2022-12-18T15:01:36.115Z,25.55
2022-12-18T15:04:05.262Z,24.48
2022-12-18T15:06:38.775Z,25.20
2022-12-18T15:09:25.039Z,23.90
2022-12-18T15:12:00.939Z,23.98
2022-12-18T15:17:22.374Z,29.90
2022-12-18T15:19:52.800Z,27.83
2022-12-18T15:22:37.771Z,25.08
2022-12-18T15:25:37.541Z,24.67
2022-12-18T15:28:16.674Z,23.02
2022-12-18T15:30:59.796Z,23.83
2022-12-18T15:33:30.693Z,25.02
2022-12-18T15:36:02.851Z,25.08
2022-12-18T15:38:29.715Z,23.77
2022-12-18T15:40:56.546Z,24.15
2022-12-18T15:43:36.380Z,25.27
2022-12-18T15:46:07.466Z,27.80
2022-12-18T15:48:36.380Z,26.85
2022-12-18T15:51:06.055Z,23.55
2022-12-18T15:53:34.882Z,25.23
2022-12-18T15:56:20.185Z,25.90
2022-12-18T15:58:46.941Z,26.60
2022-12-18T16:01:26.993Z,28.15
2022-12-18T16:03:54.912Z,26.88
2022-12-18T16:06:22.867Z,26.25
2022-12-18T16:08:49.770Z,27.15
2022-12-18T16:11:40.211Z,26.35
2022-12-18T16:14:10.766Z,27.83
2022-12-18T16:16:37.504Z,28.98
2022-12-18T16:19:04.177Z,27.13
2022-12-18T16:21:34.131Z,28.95
2022-12-18T16:24:01.006Z,28.77
2022-12-18T16:26:27.679Z,30.88
2022-12-18T16:28:54.617Z,29.77
2022-12-18T16:31:21.896Z,31.23
2022-12-18T16:33:48.595Z,34.85
2022-12-18T16:36:15.445Z,38.03
2022-12-18T16:38:42.193Z,41.65
2022-12-18T16:41:32.982Z,36.45
2022-12-18T16:44:01.069Z,36.95
2022-12-18T16:46:27.842Z,37.97
2022-12-18T16:48:54.680Z,41.63
2022-12-18T16:51:21.500Z,38.83
2022-12-18T16:53:48.389Z,39.60
2022-12-18T16:56:15.164Z,39.47
2022-12-18T16:58:41.838Z,40.97
2022-12-18T17:01:11.887Z,38.30
2022-12-18T17:03:38.979Z,42.72
2022-12-18T17:06:06.939Z,38.15
2022-12-18T17:08:33.679Z,37.80
2022-12-18T17:11:07.741Z,36.53
2022-12-18T17:13:34.574Z,35.33
2022-12-18T17:16:06.628Z,34.38
2022-12-18T17:18:34.606Z,32.20
2022-12-18T17:21:02.234Z,35.80
2022-12-18T17:23:30.103Z,36.00
2022-12-18T17:25:58.424Z,32.85
2022-12-18T17:28:26.391Z,33.53
2022-12-18T17:30:57.323Z,32.65
2022-12-18T17:33:24.527Z,31.33
2022-12-18T17:35:51.279Z,31.02
2022-12-18T17:38:18.468Z,32.53
2022-12-18T17:40:46.577Z,32.05
2022-12-18T17:43:13.560Z,29.70
2022-12-18T17:45:41.047Z,31.58
2022-12-18T17:48:09.243Z,30.30
2022-12-18T17:50:36.642Z,30.52
2022-12-18T17:53:03.784Z,31.70
2022-12-18T17:55:30.726Z,29.75
2022-12-18T17:57:57.443Z,32.05
2022-12-18T18:00:24.130Z,29.65
2022-12-18T18:02:50.913Z,29.27
2022-12-18T18:05:17.693Z,32.47
2022-12-18T18:07:44.400Z,35.15
2022-12-18T18:10:11.159Z,33.47
2022-12-18T18:12:56.652Z,33.55
2022-12-18T18:15:23.366Z,30.07
2022-12-18T18:17:50.097Z,29.20
2022-12-18T18:20:22.355Z,32.47
2022-12-18T18:22:49.653Z,34.40
2022-12-18T18:25:16.929Z,32.70
2022-12-18T18:27:44.775Z,29.25
2022-12-18T18:30:14.329Z,33.40
2022-12-18T18:32:41.167Z,32.08
2022-12-18T18:35:15.701Z,33.70
2022-12-18T18:37:55.329Z,32.05
2022-12-18T18:40:22.043Z,31.77
2022-12-18T18:42:48.778Z,31.63
2022-12-18T18:45:15.524Z,30.50
2022-12-18T18:47:42.224Z,31.33
2022-12-18T18:50:10.254Z,30.23
2022-12-18T18:52:36.958Z,31.10
2022-12-18T18:55:21.397Z,29.23
2022-12-18T18:57:52.320Z,29.20
2022-12-18T19:00:19.264Z,28.50
2022-12-18T19:02:46.215Z,31.85
2022-12-18T19:05:13.066Z,30.67
2022-12-18T19:07:39.743Z,30.08
2022-12-18T19:10:07.269Z,31.67
2022-12-18T19:12:53.317Z,30.55
2022-12-18T19:15:20.299Z,29.98
2022-12-18T19:17:47.465Z,29.70
2022-12-18T19:20:15.152Z,28.15
2022-12-18T19:22:42.123Z,30.50
2022-12-18T19:25:09.871Z,27.80
2022-12-18T19:27:38.879Z,29.25
2022-12-18T19:30:06.290Z,29.70
2022-12-18T19:32:33.904Z,29.35
2022-12-18T19:35:00.615Z,30.30
2022-12-18T19:37:28.425Z,29.80
2022-12-18T19:39:55.356Z,30.50
2022-12-18T19:42:27.129Z,30.83
2022-12-18T19:44:56.164Z,37.88
2022-12-18T19:47:22.859Z,42.10
2022-12-18T19:49:49.628Z,43.45
2022-12-18T19:52:16.387Z,40.22
2022-12-18T19:54:43.103Z,37.65
2022-12-18T19:57:11.501Z,35.28
2022-12-18T19:59:38.400Z,33.03
2022-12-18T20:02:06.008Z,29.20
2022-12-18T20:04:33.105Z,27.92
2022-12-18T20:06:59.907Z,30.75
2022-12-18T20:09:26.804Z,27.17
2022-12-18T20:11:54.338Z,18.15
2022-12-18T20:14:23.541Z,19.00
2022-12-18T20:16:51.567Z,24.27
2022-12-18T20:19:18.538Z,27.50
2022-12-18T20:21:46.037Z,21.92
2022-12-18T20:24:12.982Z,25.77
2022-12-18T20:26:40.520Z,26.33
2022-12-18T20:29:07.476Z,24.20
2022-12-18T20:31:34.273Z,21.83
2022-12-18T20:34:02.754Z,21.23
2022-12-18T20:36:31.672Z,19.27
2022-12-18T20:39:00.645Z,19.73
2022-12-18T20:41:37.388Z,17.67
2022-12-18T20:46:52.404Z,20.48
2022-12-18T20:49:19.249Z,25.10
2022-12-18T20:51:46.395Z,19.55
2022-12-18T20:54:13.099Z,17.15
2022-12-18T20:56:39.886Z,16.17
2022-12-18T20:59:07.246Z,17.10
2022-12-18T21:01:34.078Z,23.35
2022-12-18T21:04:02.221Z,26.52
2022-12-18T21:06:29.285Z,20.80
2022-12-18T21:08:56.144Z,22.48
2022-12-18T21:11:41.578Z,20.23
2022-12-18T21:14:14.519Z,19.40
2022-12-18T21:16:43.810Z,28.33
2022-12-18T21:19:17.751Z,29.67
2022-12-18T21:21:45.202Z,18.95
2022-12-18T21:24:12.442Z,19.48
2022-12-18T21:26:45.434Z,21.85
2022-12-18T21:29:24.690Z,26.80
2022-12-18T21:31:54.237Z,22.77
2022-12-18T21:34:26.896Z,17.70
2022-12-18T21:36:56.111Z,16.77
2022-12-18T21:39:22.970Z,16.48
2022-12-18T21:42:09.048Z,16.00
2022-12-18T21:44:41.720Z,17.65
2022-12-18T21:47:22.429Z,14.60
2022-12-18T21:49:51.177Z,15.80
2022-12-18T21:52:18.010Z,16.75
2022-12-18T21:54:44.750Z,13.00
2022-12-18T21:57:13.747Z,16.50
2022-12-18T21:59:42.276Z,14.18
2022-12-18T22:02:14.499Z,12.77
2022-12-18T22:04:42.488Z,12.63
2022-12-18T22:07:10.368Z,13.60
2022-12-18T22:09:38.351Z,13.57
2022-12-18T22:12:06.057Z,16.85
2022-12-18T22:14:32.729Z,16.75
2022-12-18T22:16:59.632Z,14.82
2022-12-18T22:19:26.866Z,14.23
2022-12-18T22:21:54.351Z,15.48
2022-12-18T22:24:24.114Z,15.10
2022-12-18T22:26:53.065Z,15.95
2022-12-18T22:29:43.426Z,16.05
2022-12-18T22:32:14.964Z,13.98
2022-12-18T22:34:42.990Z,13.70
2022-12-18T22:37:13.462Z,14.25
2022-12-18T22:39:40.390Z,21.70
2022-12-18T22:42:07.847Z,19.85
2022-12-18T22:44:34.777Z,22.10
2022-12-18T22:47:06.568Z,24.73
2022-12-18T22:49:35.696Z,23.00
2022-12-18T22:52:04.135Z,24.13
2022-12-18T22:54:31.099Z,22.90
2022-12-18T22:56:57.938Z,24.67
2022-12-18T22:59:25.080Z,23.08
2022-12-18T23:01:58.544Z,23.38
2022-12-18T23:04:36.267Z,22.38
2022-12-18T23:07:05.234Z,23.83
2022-12-18T23:09:33.006Z,22.45
2022-12-18T23:11:59.723Z,21.38
2022-12-18T23:14:27.128Z,20.52
2022-12-18T23:16:53.860Z,22.38
2022-12-18T23:19:21.538Z,20.95
2022-12-18T23:21:50.866Z,20.80
2022-12-18T23:24:17.921Z,19.42
2022-12-18T23:26:44.670Z,19.48
2022-12-18T23:29:11.400Z,18.75
2022-12-18T23:31:39.596Z,15.75
2022-12-18T23:34:07.612Z,15.70
2022-12-18T23:36:43.535Z,15.95
2022-12-18T23:39:15.445Z,14.93
2022-12-18T23:41:57.913Z,14.35
2022-12-18T23:44:24.740Z,14.35
2022-12-18T23:46:51.539Z,11.85
2022-12-18T23:49:18.392Z,15.57
2022-12-18T23:51:45.190Z,15.85
2022-12-18T23:54:11.918Z,19.17
2022-12-18T23:56:38.608Z,13.30
2022-12-18T23:59:05.408Z,13.82
